sensor_id;sensor_type;location;lat;lon;timestamp;temperature;humidity
41220;DHT22;26951;47.338;9.196;2023-01-15T00:01:58;6.00;57.80
41220;DHT22;26951;47.338;9.196;2023-01-15T00:04:43;6.10;56.90
41220;DHT22;26951;47.338;9.196;2023-01-15T00:07:27;6.10;55.00
41220;DHT22;26951;47.338;9.196;2023-01-15T00:10:11;6.10;52.00
41220;DHT22;26951;47.338;9.196;2023-01-15T00:12:55;6.30;49.00
41220;DHT22;26951;47.338;9.196;2023-01-15T00:15:39;6.30;49.70
41220;DHT22;26951;47.338;9.196;2023-01-15T00:18:24;6.40;49.60
41220;DHT22;26951;47.338;9.196;2023-01-15T00:21:10;6.50;48.70
41220;DHT22;26951;47.338;9.196;2023-01-15T00:23:55;6.40;48.50
41220;DHT22;26951;47.338;9.196;2023-01-15T00:26:58;6.50;49.20
41220;DHT22;26951;47.338;9.196;2023-01-15T00:30:02;6.50;48.00
41220;DHT22;26951;47.338;9.196;2023-01-15T00:32:46;6.50;48.30
41220;DHT22;26951;47.338;9.196;2023-01-15T00:35:30;6.60;45.30
41220;DHT22;26951;47.338;9.196;2023-01-15T00:38:14;6.60;47.60
41220;DHT22;26951;47.338;9.196;2023-01-15T00:40:58;6.60;45.30
41220;DHT22;26951;47.338;9.196;2023-01-15T00:43:42;6.70;45.30
41220;DHT22;26951;47.338;9.196;2023-01-15T00:46:27;6.60;44.20
41220;DHT22;26951;47.338;9.196;2023-01-15T00:49:11;6.70;45.10
41220;DHT22;26951;47.338;9.196;2023-01-15T00:51:55;6.70;44.70
41220;DHT22;26951;47.338;9.196;2023-01-15T00:54:39;6.70;44.40
41220;DHT22;26951;47.338;9.196;2023-01-15T00:57:24;6.70;45.00
41220;DHT22;26951;47.338;9.196;2023-01-15T01:00:08;6.70;44.00
41220;DHT22;26951;47.338;9.196;2023-01-15T01:02:53;6.70;44.20
41220;DHT22;26951;47.338;9.196;2023-01-15T01:05:37;6.70;45.10
41220;DHT22;26951;47.338;9.196;2023-01-15T01:08:21;6.60;44.50
41220;DHT22;26951;47.338;9.196;2023-01-15T01:11:08;6.70;44.00
41220;DHT22;26951;47.338;9.196;2023-01-15T01:13:54;6.60;44.50
41220;DHT22;26951;47.338;9.196;2023-01-15T01:16:39;6.70;45.10
41220;DHT22;26951;47.338;9.196;2023-01-15T01:19:25;6.70;44.60
41220;DHT22;26951;47.338;9.196;2023-01-15T01:22:09;6.60;44.40
41220;DHT22;26951;47.338;9.196;2023-01-15T01:24:53;6.70;43.80
41220;DHT22;26951;47.338;9.196;2023-01-15T01:27:37;6.60;45.30
41220;DHT22;26951;47.338;9.196;2023-01-15T01:30:22;6.60;44.90
41220;DHT22;26951;47.338;9.196;2023-01-15T01:33:06;6.60;45.60
41220;DHT22;26951;47.338;9.196;2023-01-15T01:35:50;6.60;45.30
41220;DHT22;26951;47.338;9.196;2023-01-15T01:38:34;6.60;46.50
41220;DHT22;26951;47.338;9.196;2023-01-15T01:41:18;6.50;46.40
41220;DHT22;26951;47.338;9.196;2023-01-15T01:47:22;6.50;47.30
41220;DHT22;26951;47.338;9.196;2023-01-15T01:50:10;6.50;45.30
41220;DHT22;26951;47.338;9.196;2023-01-15T01:52:58;6.60;44.80
41220;DHT22;26951;47.338;9.196;2023-01-15T01:55:48;6.60;45.50
41220;DHT22;26951;47.338;9.196;2023-01-15T01:58:33;6.60;45.70
41220;DHT22;26951;47.338;9.196;2023-01-15T02:04:43;6.50;47.40
41220;DHT22;26951;47.338;9.196;2023-01-15T02:07:28;6.50;48.70
41220;DHT22;26951;47.338;9.196;2023-01-15T02:10:16;6.50;49.30
41220;DHT22;26951;47.338;9.196;2023-01-15T02:13:06;6.40;48.70
41220;DHT22;26951;47.338;9.196;2023-01-15T02:16:08;6.40;48.50
41220;DHT22;26951;47.338;9.196;2023-01-15T02:22:09;6.40;50.30
41220;DHT22;26951;47.338;9.196;2023-01-15T02:25:18;6.40;51.30
41220;DHT22;26951;47.338;9.196;2023-01-15T02:28:12;6.40;52.10
41220;DHT22;26951;47.338;9.196;2023-01-15T02:31:44;6.40;53.40
41220;DHT22;26951;47.338;9.196;2023-01-15T02:34:16;6.30;53.80
41220;DHT22;26951;47.338;9.196;2023-01-15T02:37:07;6.30;54.20
41220;DHT22;26951;47.338;9.196;2023-01-15T02:39:55;6.30;53.90
41220;DHT22;26951;47.338;9.196;2023-01-15T02:42:41;6.30;53.80
41220;DHT22;26951;47.338;9.196;2023-01-15T02:45:30;6.30;55.00
41220;DHT22;26951;47.338;9.196;2023-01-15T02:48:17;6.30;55.20
41220;DHT22;26951;47.338;9.196;2023-01-15T02:51:09;6.20;55.80
41220;DHT22;26951;47.338;9.196;2023-01-15T02:53:58;6.30;56.10
41220;DHT22;26951;47.338;9.196;2023-01-15T02:56:44;6.20;56.70
41220;DHT22;26951;47.338;9.196;2023-01-15T02:59:37;6.20;57.00
41220;DHT22;26951;47.338;9.196;2023-01-15T03:02:27;6.20;56.60
41220;DHT22;26951;47.338;9.196;2023-01-15T03:05:26;6.20;57.20
41220;DHT22;26951;47.338;9.196;2023-01-15T03:08:12;6.10;56.40
41220;DHT22;26951;47.338;9.196;2023-01-15T03:11:09;6.20;54.40
41220;DHT22;26951;47.338;9.196;2023-01-15T03:14:07;6.20;54.50
41220;DHT22;26951;47.338;9.196;2023-01-15T03:16:57;6.20;55.00
41220;DHT22;26951;47.338;9.196;2023-01-15T03:19:57;6.20;53.20
41220;DHT22;26951;47.338;9.196;2023-01-15T03:22:44;6.20;52.10
41220;DHT22;26951;47.338;9.196;2023-01-15T03:25:34;6.30;50.30
41220;DHT22;26951;47.338;9.196;2023-01-15T03:28:26;6.30;48.70
41220;DHT22;26951;47.338;9.196;2023-01-15T03:31:10;6.30;49.80
41220;DHT22;26951;47.338;9.196;2023-01-15T03:33:54;6.30;49.80
41220;DHT22;26951;47.338;9.196;2023-01-15T03:36:38;6.30;49.50
41220;DHT22;26951;47.338;9.196;2023-01-15T03:39:22;6.40;47.00
41220;DHT22;26951;47.338;9.196;2023-01-15T03:42:17;6.30;48.00
41220;DHT22;26951;47.338;9.196;2023-01-15T03:45:17;6.40;48.40
41220;DHT22;26951;47.338;9.196;2023-01-15T03:48:11;6.40;49.30
41220;DHT22;26951;47.338;9.196;2023-01-15T03:51:17;6.40;50.30
41220;DHT22;26951;47.338;9.196;2023-01-15T03:54:06;6.40;51.30
41220;DHT22;26951;47.338;9.196;2023-01-15T03:56:52;6.40;53.40
41220;DHT22;26951;47.338;9.196;2023-01-15T03:59:48;6.30;53.70
41220;DHT22;26951;47.338;9.196;2023-01-15T04:02:35;6.30;53.80
41220;DHT22;26951;47.338;9.196;2023-01-15T04:05:20;6.30;54.50
41220;DHT22;26951;47.338;9.196;2023-01-15T04:08:05;6.30;55.30
41220;DHT22;26951;47.338;9.196;2023-01-15T04:10:54;6.30;50.20
41220;DHT22;26951;47.338;9.196;2023-01-15T04:13:39;6.30;52.20
41220;DHT22;26951;47.338;9.196;2023-01-15T04:16:28;6.30;51.70
41220;DHT22;26951;47.338;9.196;2023-01-15T04:19:13;6.30;53.90
41220;DHT22;26951;47.338;9.196;2023-01-15T04:21:57;6.30;55.00
41220;DHT22;26951;47.338;9.196;2023-01-15T04:24:41;6.30;55.40
41220;DHT22;26951;47.338;9.196;2023-01-15T04:27:27;6.30;55.90
41220;DHT22;26951;47.338;9.196;2023-01-15T04:30:11;6.30;55.80
41220;DHT22;26951;47.338;9.196;2023-01-15T04:32:55;6.20;55.50
41220;DHT22;26951;47.338;9.196;2023-01-15T04:35:40;6.20;56.70
41220;DHT22;26951;47.338;9.196;2023-01-15T04:38:25;6.20;56.40
41220;DHT22;26951;47.338;9.196;2023-01-15T04:41:09;6.20;57.10
41220;DHT22;26951;47.338;9.196;2023-01-15T04:44:12;6.20;58.90
41220;DHT22;26951;47.338;9.196;2023-01-15T04:46:56;6.20;60.30
41220;DHT22;26951;47.338;9.196;2023-01-15T04:49:42;6.10;61.10
41220;DHT22;26951;47.338;9.196;2023-01-15T04:52:26;6.10;62.10
41220;DHT22;26951;47.338;9.196;2023-01-15T04:55:10;6.10;62.70
41220;DHT22;26951;47.338;9.196;2023-01-15T04:57:55;6.00;63.10
41220;DHT22;26951;47.338;9.196;2023-01-15T05:00:39;6.00;63.90
41220;DHT22;26951;47.338;9.196;2023-01-15T05:03:24;6.00;65.50
41220;DHT22;26951;47.338;9.196;2023-01-15T05:06:08;6.00;65.60
41220;DHT22;26951;47.338;9.196;2023-01-15T05:08:53;6.00;65.80
41220;DHT22;26951;47.338;9.196;2023-01-15T05:11:38;6.00;65.20
41220;DHT22;26951;47.338;9.196;2023-01-15T05:14:23;6.00;64.10
41220;DHT22;26951;47.338;9.196;2023-01-15T05:17:07;6.00;65.00
41220;DHT22;26951;47.338;9.196;2023-01-15T05:19:51;6.00;65.80
41220;DHT22;26951;47.338;9.196;2023-01-15T05:22:35;6.00;66.10
41220;DHT22;26951;47.338;9.196;2023-01-15T05:25:19;6.00;65.60
41220;DHT22;26951;47.338;9.196;2023-01-15T05:28:04;6.00;65.70
41220;DHT22;26951;47.338;9.196;2023-01-15T05:30:48;6.00;64.70
41220;DHT22;26951;47.338;9.196;2023-01-15T05:33:32;6.00;66.10
41220;DHT22;26951;47.338;9.196;2023-01-15T05:36:19;6.00;65.70
41220;DHT22;26951;47.338;9.196;2023-01-15T05:39:04;5.90;66.30
41220;DHT22;26951;47.338;9.196;2023-01-15T05:41:48;5.90;66.30
41220;DHT22;26951;47.338;9.196;2023-01-15T05:44:32;5.90;67.60
41220;DHT22;26951;47.338;9.196;2023-01-15T05:47:17;6.00;67.80
41220;DHT22;26951;47.338;9.196;2023-01-15T05:50:02;5.90;68.00
41220;DHT22;26951;47.338;9.196;2023-01-15T05:52:46;5.90;68.00
41220;DHT22;26951;47.338;9.196;2023-01-15T05:55:30;5.90;68.80
41220;DHT22;26951;47.338;9.196;2023-01-15T05:58:14;5.90;69.10
41220;DHT22;26951;47.338;9.196;2023-01-15T06:00:58;5.90;70.60
41220;DHT22;26951;47.338;9.196;2023-01-15T06:03:43;5.80;70.70
41220;DHT22;26951;47.338;9.196;2023-01-15T06:06:27;5.80;71.10
41220;DHT22;26951;47.338;9.196;2023-01-15T06:09:11;5.80;71.20
41220;DHT22;26951;47.338;9.196;2023-01-15T06:11:56;5.80;71.90
41220;DHT22;26951;47.338;9.196;2023-01-15T06:14:40;5.80;72.50
41220;DHT22;26951;47.338;9.196;2023-01-15T06:17:24;5.70;72.60
41220;DHT22;26951;47.338;9.196;2023-01-15T06:20:09;5.70;72.60
41220;DHT22;26951;47.338;9.196;2023-01-15T06:22:54;5.70;72.60
41220;DHT22;26951;47.338;9.196;2023-01-15T06:25:38;5.80;72.80
41220;DHT22;26951;47.338;9.196;2023-01-15T06:28:23;5.80;73.40
41220;DHT22;26951;47.338;9.196;2023-01-15T06:31:08;5.80;76.00
41220;DHT22;26951;47.338;9.196;2023-01-15T06:33:53;5.80;75.40
41220;DHT22;26951;47.338;9.196;2023-01-15T06:36:37;5.80;75.70
41220;DHT22;26951;47.338;9.196;2023-01-15T06:39:21;5.90;75.60
41220;DHT22;26951;47.338;9.196;2023-01-15T06:42:05;6.00;74.80
41220;DHT22;26951;47.338;9.196;2023-01-15T06:45:11;6.00;74.30
41220;DHT22;26951;47.338;9.196;2023-01-15T06:48:15;6.00;74.70
41220;DHT22;26951;47.338;9.196;2023-01-15T06:50:59;6.10;76.80
41220;DHT22;26951;47.338;9.196;2023-01-15T06:53:43;6.10;76.10
41220;DHT22;26951;47.338;9.196;2023-01-15T06:56:27;6.20;76.80
41220;DHT22;26951;47.338;9.196;2023-01-15T06:59:11;6.20;76.90
41220;DHT22;26951;47.338;9.196;2023-01-15T07:01:56;6.30;76.90
41220;DHT22;26951;47.338;9.196;2023-01-15T07:04:40;6.30;77.10
41220;DHT22;26951;47.338;9.196;2023-01-15T07:07:26;6.30;77.10
41220;DHT22;26951;47.338;9.196;2023-01-15T07:10:11;6.40;78.30
41220;DHT22;26951;47.338;9.196;2023-01-15T07:12:55;6.50;77.20
41220;DHT22;26951;47.338;9.196;2023-01-15T07:15:39;6.60;78.00
41220;DHT22;26951;47.338;9.196;2023-01-15T07:18:24;6.60;77.10
41220;DHT22;26951;47.338;9.196;2023-01-15T07:21:08;6.70;76.50
41220;DHT22;26951;47.338;9.196;2023-01-15T07:23:53;6.70;75.60
41220;DHT22;26951;47.338;9.196;2023-01-15T07:26:38;6.80;75.50
41220;DHT22;26951;47.338;9.196;2023-01-15T07:29:22;6.90;74.80
41220;DHT22;26951;47.338;9.196;2023-01-15T07:32:06;6.90;74.20
41220;DHT22;26951;47.338;9.196;2023-01-15T07:34:50;7.00;74.40
41220;DHT22;26951;47.338;9.196;2023-01-15T07:37:35;6.90;73.70
41220;DHT22;26951;47.338;9.196;2023-01-15T07:40:19;7.00;73.20
41220;DHT22;26951;47.338;9.196;2023-01-15T07:43:03;7.00;73.20
41220;DHT22;26951;47.338;9.196;2023-01-15T07:46:09;7.00;73.00
41220;DHT22;26951;47.338;9.196;2023-01-15T07:49:13;7.10;72.00
41220;DHT22;26951;47.338;9.196;2023-01-15T07:52:18;7.10;71.50
41220;DHT22;26951;47.338;9.196;2023-01-15T07:55:04;7.10;71.80
41220;DHT22;26951;47.338;9.196;2023-01-15T07:57:48;7.20;72.20
41220;DHT22;26951;47.338;9.196;2023-01-15T08:00:32;7.20;71.50
41220;DHT22;26951;47.338;9.196;2023-01-15T08:03:16;7.20;69.70
41220;DHT22;26951;47.338;9.196;2023-01-15T08:06:00;7.30;70.00
41220;DHT22;26951;47.338;9.196;2023-01-15T08:08:44;7.30;70.40
41220;DHT22;26951;47.338;9.196;2023-01-15T08:11:29;7.40;70.10
41220;DHT22;26951;47.338;9.196;2023-01-15T08:14:31;7.40;70.30
41220;DHT22;26951;47.338;9.196;2023-01-15T08:17:36;7.40;69.20
41220;DHT22;26951;47.338;9.196;2023-01-15T08:20:21;7.40;68.20
41220;DHT22;26951;47.338;9.196;2023-01-15T08:23:06;7.50;65.70
41220;DHT22;26951;47.338;9.196;2023-01-15T08:25:50;7.60;64.00
41220;DHT22;26951;47.338;9.196;2023-01-15T08:28:34;7.60;64.00
41220;DHT22;26951;47.338;9.196;2023-01-15T08:31:18;7.70;63.50
41220;DHT22;26951;47.338;9.196;2023-01-15T08:34:02;7.80;63.10
41220;DHT22;26951;47.338;9.196;2023-01-15T08:36:47;7.80;62.30
41220;DHT22;26951;47.338;9.196;2023-01-15T08:39:32;7.90;62.20
41220;DHT22;26951;47.338;9.196;2023-01-15T08:42:17;7.90;61.00
41220;DHT22;26951;47.338;9.196;2023-01-15T08:45:01;7.90;61.90
41220;DHT22;26951;47.338;9.196;2023-01-15T08:47:45;8.00;61.20
41220;DHT22;26951;47.338;9.196;2023-01-15T08:50:29;8.10;59.50
41220;DHT22;26951;47.338;9.196;2023-01-15T08:53:13;8.10;60.30
41220;DHT22;26951;47.338;9.196;2023-01-15T08:55:57;8.20;57.10
41220;DHT22;26951;47.338;9.196;2023-01-15T08:58:42;8.20;57.40
41220;DHT22;26951;47.338;9.196;2023-01-15T09:01:26;8.30;56.70
41220;DHT22;26951;47.338;9.196;2023-01-15T09:04:18;8.30;57.60
41220;DHT22;26951;47.338;9.196;2023-01-15T09:07:03;8.30;58.80
41220;DHT22;26951;47.338;9.196;2023-01-15T09:09:47;8.20;58.70
41220;DHT22;26951;47.338;9.196;2023-01-15T09:12:31;8.20;58.70
41220;DHT22;26951;47.338;9.196;2023-01-15T09:15:16;8.20;57.50
41220;DHT22;26951;47.338;9.196;2023-01-15T09:18:00;8.20;56.80
41220;DHT22;26951;47.338;9.196;2023-01-15T09:20:45;8.20;56.90
41220;DHT22;26951;47.338;9.196;2023-01-15T09:23:29;8.20;56.50
41220;DHT22;26951;47.338;9.196;2023-01-15T09:26:28;8.20;57.00
41220;DHT22;26951;47.338;9.196;2023-01-15T09:29:12;8.20;58.60
41220;DHT22;26951;47.338;9.196;2023-01-15T09:31:56;8.20;59.90
41220;DHT22;26951;47.338;9.196;2023-01-15T09:34:40;8.30;61.20
41220;DHT22;26951;47.338;9.196;2023-01-15T09:37:24;8.20;62.00
41220;DHT22;26951;47.338;9.196;2023-01-15T09:40:33;8.20;63.60
41220;DHT22;26951;47.338;9.196;2023-01-15T09:46:19;8.10;64.70
41220;DHT22;26951;47.338;9.196;2023-01-15T09:52:57;7.70;65.40
41220;DHT22;26951;47.338;9.196;2023-01-15T09:55:47;7.50;65.70
41220;DHT22;26951;47.338;9.196;2023-01-15T09:58:35;7.30;65.80
41220;DHT22;26951;47.338;9.196;2023-01-15T10:01:25;7.10;66.10
41220;DHT22;26951;47.338;9.196;2023-01-15T10:04:24;7.00;65.80
41220;DHT22;26951;47.338;9.196;2023-01-15T10:07:20;6.80;65.20
41220;DHT22;26951;47.338;9.196;2023-01-15T10:10:11;6.60;67.10
41220;DHT22;26951;47.338;9.196;2023-01-15T10:13:01;6.50;67.80
41220;DHT22;26951;47.338;9.196;2023-01-15T10:15:49;6.40;67.70
41220;DHT22;26951;47.338;9.196;2023-01-15T10:18:34;6.30;68.00
41220;DHT22;26951;47.338;9.196;2023-01-15T10:24:47;6.00;66.90
41220;DHT22;26951;47.338;9.196;2023-01-15T10:27:36;5.70;64.90
41220;DHT22;26951;47.338;9.196;2023-01-15T10:30:40;5.40;66.80
41220;DHT22;26951;47.338;9.196;2023-01-15T10:33:33;5.30;67.90
41220;DHT22;26951;47.338;9.196;2023-01-15T10:36:32;5.20;68.60
41220;DHT22;26951;47.338;9.196;2023-01-15T10:39:41;5.10;67.80
41220;DHT22;26951;47.338;9.196;2023-01-15T10:45:20;4.80;68.40
41220;DHT22;26951;47.338;9.196;2023-01-15T10:48:13;4.70;68.30
41220;DHT22;26951;47.338;9.196;2023-01-15T10:51:05;4.70;70.50
41220;DHT22;26951;47.338;9.196;2023-01-15T10:54:35;4.70;70.80
41220;DHT22;26951;47.338;9.196;2023-01-15T11:00:54;4.50;71.90
41220;DHT22;26951;47.338;9.196;2023-01-15T11:03:42;4.40;71.00
41220;DHT22;26951;47.338;9.196;2023-01-15T11:06:29;4.40;69.90
41220;DHT22;26951;47.338;9.196;2023-01-15T11:09:21;4.30;69.70
41220;DHT22;26951;47.338;9.196;2023-01-15T11:15:13;4.00;69.00
41220;DHT22;26951;47.338;9.196;2023-01-15T11:18:25;3.90;69.20
41220;DHT22;26951;47.338;9.196;2023-01-15T11:21:30;3.80;69.60
41220;DHT22;26951;47.338;9.196;2023-01-15T11:24:16;3.70;70.30
41220;DHT22;26951;47.338;9.196;2023-01-15T11:27:01;3.60;69.90
41220;DHT22;26951;47.338;9.196;2023-01-15T11:29:51;3.50;70.50
41220;DHT22;26951;47.338;9.196;2023-01-15T11:32:36;3.40;71.10
41220;DHT22;26951;47.338;9.196;2023-01-15T11:35:22;3.40;70.50
41220;DHT22;26951;47.338;9.196;2023-01-15T11:38:12;3.40;71.20
41220;DHT22;26951;47.338;9.196;2023-01-15T11:41:01;3.30;71.10
41220;DHT22;26951;47.338;9.196;2023-01-15T11:43:57;3.30;71.30
41220;DHT22;26951;47.338;9.196;2023-01-15T11:47:02;3.20;71.20
41220;DHT22;26951;47.338;9.196;2023-01-15T11:50:16;3.20;71.40
41220;DHT22;26951;47.338;9.196;2023-01-15T11:53:26;3.20;71.40
41220;DHT22;26951;47.338;9.196;2023-01-15T11:56:31;3.30;70.90
41220;DHT22;26951;47.338;9.196;2023-01-15T11:59:19;3.20;70.60
41220;DHT22;26951;47.338;9.196;2023-01-15T12:02:22;3.20;71.30
41220;DHT22;26951;47.338;9.196;2023-01-15T12:05:14;3.10;71.10
41220;DHT22;26951;47.338;9.196;2023-01-15T12:08:02;3.10;71.00
41220;DHT22;26951;47.338;9.196;2023-01-15T12:11:01;3.00;70.50
41220;DHT22;26951;47.338;9.196;2023-01-15T12:13:51;3.00;70.50
41220;DHT22;26951;47.338;9.196;2023-01-15T12:22:52;2.80;70.30
41220;DHT22;26951;47.338;9.196;2023-01-15T12:29:09;2.60;71.10
41220;DHT22;26951;47.338;9.196;2023-01-15T12:31:58;2.50;72.20
41220;DHT22;26951;47.338;9.196;2023-01-15T12:34:53;2.50;72.40
41220;DHT22;26951;47.338;9.196;2023-01-15T12:37:44;2.40;72.20
41220;DHT22;26951;47.338;9.196;2023-01-15T12:40:47;2.40;72.90
41220;DHT22;26951;47.338;9.196;2023-01-15T12:43:32;2.30;73.60
41220;DHT22;26951;47.338;9.196;2023-01-15T12:46:38;2.30;73.80
41220;DHT22;26951;47.338;9.196;2023-01-15T12:49:34;2.20;74.70
41220;DHT22;26951;47.338;9.196;2023-01-15T12:52:27;2.20;75.70
41220;DHT22;26951;47.338;9.196;2023-01-15T12:55:24;2.10;74.80
41220;DHT22;26951;47.338;9.196;2023-01-15T12:58:16;2.10;74.50
41220;DHT22;26951;47.338;9.196;2023-01-15T13:04:14;2.10;75.00
41220;DHT22;26951;47.338;9.196;2023-01-15T13:07:04;2.00;75.20
41220;DHT22;26951;47.338;9.196;2023-01-15T13:10:13;2.00;76.00
41220;DHT22;26951;47.338;9.196;2023-01-15T13:16:17;2.00;76.80
41220;DHT22;26951;47.338;9.196;2023-01-15T13:19:22;2.00;76.70
41220;DHT22;26951;47.338;9.196;2023-01-15T13:22:14;2.00;76.80
41220;DHT22;26951;47.338;9.196;2023-01-15T13:25:18;1.90;76.60
41220;DHT22;26951;47.338;9.196;2023-01-15T13:28:33;1.90;77.10
41220;DHT22;26951;47.338;9.196;2023-01-15T13:37:21;1.90;77.80
41220;DHT22;26951;47.338;9.196;2023-01-15T13:40:32;1.90;78.60
41220;DHT22;26951;47.338;9.196;2023-01-15T13:43:34;2.00;78.50
41220;DHT22;26951;47.338;9.196;2023-01-15T13:46:20;2.00;77.70
41220;DHT22;26951;47.338;9.196;2023-01-15T13:49:05;2.00;77.70
41220;DHT22;26951;47.338;9.196;2023-01-15T13:51:49;2.10;77.40
41220;DHT22;26951;47.338;9.196;2023-01-15T13:54:39;2.10;77.10
41220;DHT22;26951;47.338;9.196;2023-01-15T13:57:37;2.20;76.80
41220;DHT22;26951;47.338;9.196;2023-01-15T14:00:41;2.10;76.80
41220;DHT22;26951;47.338;9.196;2023-01-15T14:03:28;2.20;76.10
41220;DHT22;26951;47.338;9.196;2023-01-15T14:06:13;2.10;76.70
41220;DHT22;26951;47.338;9.196;2023-01-15T14:08:57;2.10;76.90
41220;DHT22;26951;47.338;9.196;2023-01-15T14:12:47;2.20;75.90
41220;DHT22;26951;47.338;9.196;2023-01-15T14:18:12;2.20;75.60
41220;DHT22;26951;47.338;9.196;2023-01-15T14:36:18;2.00;75.20
41220;DHT22;26951;47.338;9.196;2023-01-15T14:39:08;2.10;73.70
41220;DHT22;26951;47.338;9.196;2023-01-15T14:42:10;2.00;72.90
41220;DHT22;26951;47.338;9.196;2023-01-15T14:48:04;2.00;73.00
41220;DHT22;26951;47.338;9.196;2023-01-15T14:50:49;1.90;72.50
41220;DHT22;26951;47.338;9.196;2023-01-15T14:53:38;1.80;73.20
41220;DHT22;26951;47.338;9.196;2023-01-15T14:56:35;1.80;72.70
41220;DHT22;26951;47.338;9.196;2023-01-15T14:59:41;1.80;72.60
41220;DHT22;26951;47.338;9.196;2023-01-15T15:02:47;1.70;73.70
41220;DHT22;26951;47.338;9.196;2023-01-15T15:05:32;1.70;73.50
41220;DHT22;26951;47.338;9.196;2023-01-15T15:08:18;1.70;73.70
41220;DHT22;26951;47.338;9.196;2023-01-15T15:11:04;1.70;72.10
41220;DHT22;26951;47.338;9.196;2023-01-15T15:14:10;1.70;72.10
41220;DHT22;26951;47.338;9.196;2023-01-15T15:16:59;1.60;70.60
41220;DHT22;26951;47.338;9.196;2023-01-15T15:19:49;1.60;71.80
41220;DHT22;26951;47.338;9.196;2023-01-15T15:22:37;1.60;70.70
41220;DHT22;26951;47.338;9.196;2023-01-15T15:25:24;1.60;70.30
41220;DHT22;26951;47.338;9.196;2023-01-15T15:28:10;1.60;70.10
41220;DHT22;26951;47.338;9.196;2023-01-15T15:30:56;1.60;70.10
41220;DHT22;26951;47.338;9.196;2023-01-15T15:33:44;1.60;69.50
41220;DHT22;26951;47.338;9.196;2023-01-15T15:36:31;1.60;69.70
41220;DHT22;26951;47.338;9.196;2023-01-15T15:42:46;1.60;68.60
41220;DHT22;26951;47.338;9.196;2023-01-15T15:45:53;1.60;67.40
41220;DHT22;26951;47.338;9.196;2023-01-15T15:48:56;1.60;65.90
41220;DHT22;26951;47.338;9.196;2023-01-15T15:51:46;1.60;67.00
41220;DHT22;26951;47.338;9.196;2023-01-15T15:54:33;1.60;66.60
41220;DHT22;26951;47.338;9.196;2023-01-15T15:57:19;1.70;65.90
41220;DHT22;26951;47.338;9.196;2023-01-15T16:00:03;1.60;66.60
41220;DHT22;26951;47.338;9.196;2023-01-15T16:02:47;1.60;68.00
41220;DHT22;26951;47.338;9.196;2023-01-15T16:05:32;1.50;66.70
41220;DHT22;26951;47.338;9.196;2023-01-15T16:08:19;1.40;67.50
41220;DHT22;26951;47.338;9.196;2023-01-15T16:11:06;1.40;67.90
41220;DHT22;26951;47.338;9.196;2023-01-15T16:13:53;1.40;67.60
41220;DHT22;26951;47.338;9.196;2023-01-15T16:16:37;1.40;68.00
41220;DHT22;26951;47.338;9.196;2023-01-15T16:19:22;1.40;68.60
41220;DHT22;26951;47.338;9.196;2023-01-15T16:22:12;1.40;69.10
41220;DHT22;26951;47.338;9.196;2023-01-15T16:24:58;1.40;69.60
41220;DHT22;26951;47.338;9.196;2023-01-15T16:27:42;1.50;69.60
41220;DHT22;26951;47.338;9.196;2023-01-15T16:30:28;1.50;69.90
41220;DHT22;26951;47.338;9.196;2023-01-15T16:33:12;1.50;70.00
41220;DHT22;26951;47.338;9.196;2023-01-15T16:35:58;1.40;70.60
41220;DHT22;26951;47.338;9.196;2023-01-15T16:38:48;1.40;70.70
41220;DHT22;26951;47.338;9.196;2023-01-15T16:41:38;1.40;71.00
41220;DHT22;26951;47.338;9.196;2023-01-15T16:44:31;1.30;71.20
41220;DHT22;26951;47.338;9.196;2023-01-15T16:47:25;1.40;71.90
41220;DHT22;26951;47.338;9.196;2023-01-15T16:50:25;1.30;71.90
41220;DHT22;26951;47.338;9.196;2023-01-15T16:53:30;1.30;72.30
41220;DHT22;26951;47.338;9.196;2023-01-15T16:56:51;1.30;72.50
41220;DHT22;26951;47.338;9.196;2023-01-15T17:02:21;1.30;72.90
41220;DHT22;26951;47.338;9.196;2023-01-15T17:05:19;1.30;73.30
41220;DHT22;26951;47.338;9.196;2023-01-15T17:08:04;1.30;73.80
41220;DHT22;26951;47.338;9.196;2023-01-15T17:10:59;1.30;74.00
41220;DHT22;26951;47.338;9.196;2023-01-15T17:13:44;1.30;73.80
41220;DHT22;26951;47.338;9.196;2023-01-15T17:16:28;1.30;73.40
41220;DHT22;26951;47.338;9.196;2023-01-15T17:19:12;1.30;72.90
41220;DHT22;26951;47.338;9.196;2023-01-15T17:21:57;1.30;73.20
41220;DHT22;26951;47.338;9.196;2023-01-15T17:24:48;1.30;72.50
41220;DHT22;26951;47.338;9.196;2023-01-15T17:27:32;1.30;72.50
41220;DHT22;26951;47.338;9.196;2023-01-15T17:30:17;1.30;72.50
41220;DHT22;26951;47.338;9.196;2023-01-15T17:33:03;1.30;72.40
41220;DHT22;26951;47.338;9.196;2023-01-15T17:35:48;1.20;72.30
41220;DHT22;26951;47.338;9.196;2023-01-15T17:38:32;1.20;72.30
41220;DHT22;26951;47.338;9.196;2023-01-15T17:41:18;1.20;71.70
41220;DHT22;26951;47.338;9.196;2023-01-15T17:44:02;1.20;72.00
41220;DHT22;26951;47.338;9.196;2023-01-15T17:46:46;1.20;72.40
41220;DHT22;26951;47.338;9.196;2023-01-15T17:49:31;1.20;72.40
41220;DHT22;26951;47.338;9.196;2023-01-15T17:52:19;1.20;71.00
41220;DHT22;26951;47.338;9.196;2023-01-15T17:55:03;1.20;70.80
41220;DHT22;26951;47.338;9.196;2023-01-15T17:58:13;1.10;69.20
41220;DHT22;26951;47.338;9.196;2023-01-15T18:01:20;1.10;70.20
41220;DHT22;26951;47.338;9.196;2023-01-15T18:04:28;1.00;70.70
41220;DHT22;26951;47.338;9.196;2023-01-15T18:07:39;1.00;71.00
41220;DHT22;26951;47.338;9.196;2023-01-15T18:10:24;1.00;71.30
41220;DHT22;26951;47.338;9.196;2023-01-15T18:13:08;1.00;71.40
41220;DHT22;26951;47.338;9.196;2023-01-15T18:15:52;1.00;70.80
41220;DHT22;26951;47.338;9.196;2023-01-15T18:18:36;0.90;70.70
41220;DHT22;26951;47.338;9.196;2023-01-15T18:21:20;0.90;69.80
41220;DHT22;26951;47.338;9.196;2023-01-15T18:24:06;0.90;70.10
41220;DHT22;26951;47.338;9.196;2023-01-15T18:26:51;0.90;70.00
41220;DHT22;26951;47.338;9.196;2023-01-15T18:29:36;0.90;68.60
41220;DHT22;26951;47.338;9.196;2023-01-15T18:32:23;0.90;69.00
41220;DHT22;26951;47.338;9.196;2023-01-15T18:35:08;0.90;68.10
41220;DHT22;26951;47.338;9.196;2023-01-15T18:37:54;0.80;67.00
41220;DHT22;26951;47.338;9.196;2023-01-15T18:40:39;0.80;66.10
41220;DHT22;26951;47.338;9.196;2023-01-15T18:43:23;0.70;65.60
41220;DHT22;26951;47.338;9.196;2023-01-15T18:46:26;0.60;66.60
41220;DHT22;26951;47.338;9.196;2023-01-15T18:49:30;0.60;65.20
41220;DHT22;26951;47.338;9.196;2023-01-15T18:52:15;0.50;64.20
41220;DHT22;26951;47.338;9.196;2023-01-15T18:55:19;0.50;64.70
41220;DHT22;26951;47.338;9.196;2023-01-15T18:58:05;0.40;62.90
41220;DHT22;26951;47.338;9.196;2023-01-15T19:00:49;0.40;63.00
41220;DHT22;26951;47.338;9.196;2023-01-15T19:03:33;0.30;63.10
41220;DHT22;26951;47.338;9.196;2023-01-15T19:06:17;0.20;64.00
41220;DHT22;26951;47.338;9.196;2023-01-15T19:09:02;0.20;64.20
41220;DHT22;26951;47.338;9.196;2023-01-15T19:11:47;0.10;64.30
41220;DHT22;26951;47.338;9.196;2023-01-15T19:14:32;0.10;65.40
41220;DHT22;26951;47.338;9.196;2023-01-15T19:17:35;0.00;66.60
41220;DHT22;26951;47.338;9.196;2023-01-15T19:20:38;0.00;66.40
41220;DHT22;26951;47.338;9.196;2023-01-15T19:23:22;-0.10;65.90
41220;DHT22;26951;47.338;9.196;2023-01-15T19:26:06;-0.10;67.10